sensor_id;sensor_type;location;lat;lon;timestamp;temperature;humidity
44731;DHT22;30458;47.448;19.032;2023-10-09T00:06:28;12.60;81.90
44731;DHT22;30458;47.448;19.032;2023-10-09T00:16:37;12.50;83.00
44731;DHT22;30458;47.448;19.032;2023-10-09T00:26:47;12.80;81.90
44731;DHT22;30458;47.448;19.032;2023-10-09T00:36:49;12.90;82.60
44731;DHT22;30458;47.448;19.032;2023-10-09T00:46:52;12.50;84.70
44731;DHT22;30458;47.448;19.032;2023-10-09T00:56:54;12.80;84.30
44731;DHT22;30458;47.448;19.032;2023-10-09T01:07:05;12.80;84.60
44731;DHT22;30458;47.448;19.032;2023-10-09T01:17:10;12.80;84.30
44731;DHT22;30458;47.448;19.032;2023-10-09T01:27:12;12.80;85.20
44731;DHT22;30458;47.448;19.032;2023-10-09T01:37:19;12.90;84.80
44731;DHT22;30458;47.448;19.032;2023-10-09T01:47:23;12.90;85.00
44731;DHT22;30458;47.448;19.032;2023-10-09T01:57:26;12.80;84.80
44731;DHT22;30458;47.448;19.032;2023-10-09T02:07:30;12.90;83.90
44731;DHT22;30458;47.448;19.032;2023-10-09T02:17:42;12.90;84.70
44731;DHT22;30458;47.448;19.032;2023-10-09T02:28:01;12.90;83.80
44731;DHT22;30458;47.448;19.032;2023-10-09T02:38:06;12.40;83.90
44731;DHT22;30458;47.448;19.032;2023-10-09T02:48:10;12.00;86.40
44731;DHT22;30458;47.448;19.032;2023-10-09T02:58:11;12.30;87.60
44731;DHT22;30458;47.448;19.032;2023-10-09T03:08:22;12.10;89.40
44731;DHT22;30458;47.448;19.032;2023-10-09T03:18:23;12.10;90.40
44731;DHT22;30458;47.448;19.032;2023-10-09T03:28:24;12.20;90.50
44731;DHT22;30458;47.448;19.032;2023-10-09T03:38:25;12.50;90.00
44731;DHT22;30458;47.448;19.032;2023-10-09T03:48:36;12.60;88.40
44731;DHT22;30458;47.448;19.032;2023-10-09T03:58:41;12.60;87.20
44731;DHT22;30458;47.448;19.032;2023-10-09T04:08:51;12.70;86.90
44731;DHT22;30458;47.448;19.032;2023-10-09T04:18:59;12.80;85.30
44731;DHT22;30458;47.448;19.032;2023-10-09T04:29:03;12.90;84.60
44731;DHT22;30458;47.448;19.032;2023-10-09T04:39:04;12.80;84.10
44731;DHT22;30458;47.448;19.032;2023-10-09T04:49:05;12.80;83.60
44731;DHT22;30458;47.448;19.032;2023-10-09T04:59:25;12.70;83.70
44731;DHT22;30458;47.448;19.032;2023-10-09T05:09:26;12.50;84.00
44731;DHT22;30458;47.448;19.032;2023-10-09T05:19:49;12.30;85.00
44731;DHT22;30458;47.448;19.032;2023-10-09T05:30:16;12.30;84.80
44731;DHT22;30458;47.448;19.032;2023-10-09T05:40:33;12.40;84.90
44731;DHT22;30458;47.448;19.032;2023-10-09T05:50:36;12.50;84.90
44731;DHT22;30458;47.448;19.032;2023-10-09T06:00:38;12.60;84.20
44731;DHT22;30458;47.448;19.032;2023-10-09T06:10:58;12.50;82.40
44731;DHT22;30458;47.448;19.032;2023-10-09T06:21:27;12.60;82.50
44731;DHT22;30458;47.448;19.032;2023-10-09T06:31:40;12.60;82.30
44731;DHT22;30458;47.448;19.032;2023-10-09T06:42:01;12.50;81.40
44731;DHT22;30458;47.448;19.032;2023-10-09T06:52:12;12.40;80.30
44731;DHT22;30458;47.448;19.032;2023-10-09T07:02:35;12.50;79.30
44731;DHT22;30458;47.448;19.032;2023-10-09T07:12:46;12.30;79.10
44731;DHT22;30458;47.448;19.032;2023-10-09T07:22:53;12.40;78.40
44731;DHT22;30458;47.448;19.032;2023-10-09T07:33:00;12.60;77.80
44731;DHT22;30458;47.448;19.032;2023-10-09T07:43:12;12.70;77.70
44731;DHT22;30458;47.448;19.032;2023-10-09T07:53:19;12.40;77.70
44731;DHT22;30458;47.448;19.032;2023-10-09T08:03:26;12.90;76.80
44731;DHT22;30458;47.448;19.032;2023-10-09T08:13:33;13.10;76.20
44731;DHT22;30458;47.448;19.032;2023-10-09T08:23:57;12.50;75.80
44731;DHT22;30458;47.448;19.032;2023-10-09T08:34:06;12.40;75.80
44731;DHT22;30458;47.448;19.032;2023-10-09T08:44:12;12.90;75.80
44731;DHT22;30458;47.448;19.032;2023-10-09T08:54:15;13.20;72.80
44731;DHT22;30458;47.448;19.032;2023-10-09T09:04:40;13.40;74.10
44731;DHT22;30458;47.448;19.032;2023-10-09T09:14:44;13.50;73.40
44731;DHT22;30458;47.448;19.032;2023-10-09T09:24:58;14.70;72.00
44731;DHT22;30458;47.448;19.032;2023-10-09T09:35:12;14.60;71.40
44731;DHT22;30458;47.448;19.032;2023-10-09T09:45:22;14.50;70.70
44731;DHT22;30458;47.448;19.032;2023-10-09T09:55:37;14.70;72.60
44731;DHT22;30458;47.448;19.032;2023-10-09T10:05:44;15.10;71.20
44731;DHT22;30458;47.448;19.032;2023-10-09T10:26:17;15.40;70.40
44731;DHT22;30458;47.448;19.032;2023-10-09T10:36:18;15.10;70.40
44731;DHT22;30458;47.448;19.032;2023-10-09T10:46:26;15.30;70.50
44731;DHT22;30458;47.448;19.032;2023-10-09T10:56:37;14.90;70.70
44731;DHT22;30458;47.448;19.032;2023-10-09T11:06:38;15.00;71.60
44731;DHT22;30458;47.448;19.032;2023-10-09T11:16:42;15.50;71.60
44731;DHT22;30458;47.448;19.032;2023-10-09T11:26:43;15.70;70.70
44731;DHT22;30458;47.448;19.032;2023-10-09T11:36:55;16.00;70.70
44731;DHT22;30458;47.448;19.032;2023-10-09T11:46:59;15.90;71.50
44731;DHT22;30458;47.448;19.032;2023-10-09T11:57:15;16.20;71.20
44731;DHT22;30458;47.448;19.032;2023-10-09T12:07:17;16.60;72.00
44731;DHT22;30458;47.448;19.032;2023-10-09T12:17:23;17.10;73.30
44731;DHT22;30458;47.448;19.032;2023-10-09T12:27:28;17.20;73.80
44731;DHT22;30458;47.448;19.032;2023-10-09T12:37:30;16.90;76.60
44731;DHT22;30458;47.448;19.032;2023-10-09T12:47:31;17.00;80.00
44731;DHT22;30458;47.448;19.032;2023-10-09T12:57:36;17.10;83.10
44731;DHT22;30458;47.448;19.032;2023-10-09T13:07:37;17.20;84.40
44731;DHT22;30458;47.448;19.032;2023-10-09T13:17:38;17.20;83.50
44731;DHT22;30458;47.448;19.032;2023-10-09T13:27:39;17.10;84.20
44731;DHT22;30458;47.448;19.032;2023-10-09T13:37:43;16.90;82.50
44731;DHT22;30458;47.448;19.032;2023-10-09T13:47:47;16.90;85.80
44731;DHT22;30458;47.448;19.032;2023-10-09T13:57:49;16.70;88.80
44731;DHT22;30458;47.448;19.032;2023-10-09T14:07:50;16.60;91.00
44731;DHT22;30458;47.448;19.032;2023-10-09T14:17:55;16.60;90.90
44731;DHT22;30458;47.448;19.032;2023-10-09T14:27:56;16.50;91.00
44731;DHT22;30458;47.448;19.032;2023-10-09T14:37:58;16.30;90.70
44731;DHT22;30458;47.448;19.032;2023-10-09T14:48:02;16.00;93.90
44731;DHT22;30458;47.448;19.032;2023-10-09T14:58:03;16.00;96.20
44731;DHT22;30458;47.448;19.032;2023-10-09T15:08:04;15.90;94.30
44731;DHT22;30458;47.448;19.032;2023-10-09T15:18:11;15.90;97.80
44731;DHT22;30458;47.448;19.032;2023-10-09T15:28:16;15.70;96.80
44731;DHT22;30458;47.448;19.032;2023-10-09T15:38:17;15.70;98.50
44731;DHT22;30458;47.448;19.032;2023-10-09T15:48:20;15.60;99.90
44731;DHT22;30458;47.448;19.032;2023-10-09T15:58:22;15.50;99.90
44731;DHT22;30458;47.448;19.032;2023-10-09T16:08:27;15.50;99.90
44731;DHT22;30458;47.448;19.032;2023-10-09T16:18:28;15.60;99.90
44731;DHT22;30458;47.448;19.032;2023-10-09T16:28:29;15.50;99.90
44731;DHT22;30458;47.448;19.032;2023-10-09T16:38:32;15.40;99.90
44731;DHT22;30458;47.448;19.032;2023-10-09T16:48:36;15.40;99.90
44731;DHT22;30458;47.448;19.032;2023-10-09T16:58:40;15.30;99.90
44731;DHT22;30458;47.448;19.032;2023-10-09T17:08:42;15.30;99.90
44731;DHT22;30458;47.448;19.032;2023-10-09T17:18:51;15.10;99.90
44731;DHT22;30458;47.448;19.032;2023-10-09T17:28:57;15.00;99.90
44731;DHT22;30458;47.448;19.032;2023-10-09T17:38:58;14.90;99.90
44731;DHT22;30458;47.448;19.032;2023-10-09T17:49:07;15.10;99.90
44731;DHT22;30458;47.448;19.032;2023-10-09T17:59:10;15.10;99.90
44731;DHT22;30458;47.448;19.032;2023-10-09T18:09:12;15.00;99.90
44731;DHT22;30458;47.448;19.032;2023-10-09T18:19:21;14.90;99.90
44731;DHT22;30458;47.448;19.032;2023-10-09T18:29:21;15.10;99.90
44731;DHT22;30458;47.448;19.032;2023-10-09T18:39:24;14.90;99.90
44731;DHT22;30458;47.448;19.032;2023-10-09T18:49:25;14.80;99.90
44731;DHT22;30458;47.448;19.032;2023-10-09T18:59:30;14.80;99.90
44731;DHT22;30458;47.448;19.032;2023-10-09T19:09:30;14.80;99.90
44731;DHT22;30458;47.448;19.032;2023-10-09T19:19:31;14.50;99.90
44731;DHT22;30458;47.448;19.032;2023-10-09T19:29:35;14.40;99.90
44731;DHT22;30458;47.448;19.032;2023-10-09T19:39:36;14.20;99.90
44731;DHT22;30458;47.448;19.032;2023-10-09T19:49:37;14.10;99.90
44731;DHT22;30458;47.448;19.032;2023-10-09T19:59:42;14.00;99.90
44731;DHT22;30458;47.448;19.032;2023-10-09T20:09:48;13.90;99.90
44731;DHT22;30458;47.448;19.032;2023-10-09T20:19:49;13.90;99.90
44731;DHT22;30458;47.448;19.032;2023-10-09T20:29:52;13.90;99.90
44731;DHT22;30458;47.448;19.032;2023-10-09T20:39:55;13.90;99.90
44731;DHT22;30458;47.448;19.032;2023-10-09T20:49:59;13.90;99.90
44731;DHT22;30458;47.448;19.032;2023-10-09T21:00:00;13.40;99.90
44731;DHT22;30458;47.448;19.032;2023-10-09T21:10:03;13.00;99.90
44731;DHT22;30458;47.448;19.032;2023-10-09T21:20:10;13.00;99.90
44731;DHT22;30458;47.448;19.032;2023-10-09T21:30:19;12.80;99.90
44731;DHT22;30458;47.448;19.032;2023-10-09T21:40:22;12.60;99.90
44731;DHT22;30458;47.448;19.032;2023-10-09T21:50:31;12.50;99.90
44731;DHT22;30458;47.448;19.032;2023-10-09T22:00:32;12.10;99.90
44731;DHT22;30458;47.448;19.032;2023-10-09T22:10:36;12.10;99.90
44731;DHT22;30458;47.448;19.032;2023-10-09T22:20:40;12.10;99.90
44731;DHT22;30458;47.448;19.032;2023-10-09T22:30:47;12.10;99.90
44731;DHT22;30458;47.448;19.032;2023-10-09T22:40:48;12.20;99.90
44731;DHT22;30458;47.448;19.032;2023-10-09T22:50:54;12.20;99.90
44731;DHT22;30458;47.448;19.032;2023-10-09T23:01:10;12.30;99.90
44731;DHT22;30458;47.448;19.032;2023-10-09T23:11:21;12.00;99.90
44731;DHT22;30458;47.448;19.032;2023-10-09T23:21:25;11.90;99.90
44731;DHT22;30458;47.448;19.032;2023-10-09T23:31:35;12.00;99.90
44731;DHT22;30458;47.448;19.032;2023-10-09T23:41:40;12.10;99.90
44731;DHT22;30458;47.448;19.032;2023-10-09T23:51:41;12.40;99.90
